createdAt,value
2018-11-21T00:01:45.923Z,2.30
2018-11-21T00:04:14.213Z,2.20
2018-11-21T00:06:42.454Z,2.20
2018-11-21T00:09:10.902Z,2.20
2018-11-21T00:11:39.150Z,2.20
2018-11-21T00:14:07.742Z,2.20
2018-11-21T00:16:36.220Z,2.20
2018-11-21T00:19:04.525Z,2.20
2018-11-21T00:21:32.872Z,2.30
2018-11-21T00:24:01.236Z,2.30
2018-11-21T00:26:29.534Z,2.30
2018-11-21T00:28:57.686Z,2.30
2018-11-21T00:31:26.261Z,2.30
2018-11-21T00:33:54.306Z,2.20
2018-11-21T00:36:22.325Z,2.20
2018-11-21T00:38:51.262Z,2.20
2018-11-21T00:41:19.517Z,2.30
2018-11-21T00:43:48.132Z,2.20
2018-11-21T00:46:16.423Z,2.20
2018-11-21T00:48:44.674Z,2.20
2018-11-21T00:51:13.805Z,2.20
2018-11-21T00:53:42.881Z,2.20
2018-11-21T00:56:11.242Z,2.20
2018-11-21T00:58:39.650Z,2.20
2018-11-21T01:01:07.711Z,2.20
2018-11-21T01:03:35.986Z,2.30
2018-11-21T01:06:04.090Z,2.20
2018-11-21T01:08:32.330Z,2.20
2018-11-21T01:11:00.604Z,2.30
2018-11-21T01:13:28.574Z,2.20
2018-11-21T01:15:57.180Z,2.20
2018-11-21T01:18:25.530Z,2.20
2018-11-21T01:20:54.017Z,2.20
2018-11-21T01:23:22.279Z,2.30
2018-11-21T01:25:50.270Z,2.30
2018-11-21T01:28:18.517Z,2.30
2018-11-21T01:30:46.892Z,2.30
2018-11-21T01:33:14.883Z,2.30
2018-11-21T01:35:43.154Z,2.30
2018-11-21T01:38:11.431Z,2.30
2018-11-21T01:40:39.818Z,2.30
2018-11-21T01:43:08.703Z,2.40
2018-11-21T01:45:36.976Z,2.30
2018-11-21T01:48:05.333Z,2.30
2018-11-21T01:50:33.683Z,2.30
2018-11-21T01:53:02.222Z,2.30
2018-11-21T01:55:30.474Z,2.30
2018-11-21T01:57:58.778Z,2.30
2018-11-21T02:00:26.736Z,2.30
2018-11-21T02:02:55.006Z,2.30
2018-11-21T02:05:23.359Z,2.30
2018-11-21T02:07:51.385Z,2.30
2018-11-21T02:10:19.722Z,2.40
2018-11-21T02:12:48.064Z,2.40
2018-11-21T02:15:16.074Z,2.40
2018-11-21T02:17:44.103Z,2.40
2018-11-21T02:20:12.924Z,2.40
2018-11-21T02:22:41.231Z,2.40
2018-11-21T02:25:09.566Z,2.40
2018-11-21T02:27:37.603Z,2.40
2018-11-21T02:30:06.901Z,2.40
2018-11-21T02:32:35.240Z,2.40
2018-11-21T02:35:03.517Z,2.40
2018-11-21T02:37:31.532Z,2.30
2018-11-21T02:39:59.835Z,2.40
2018-11-21T02:42:28.700Z,2.30
2018-11-21T02:44:57.006Z,2.30
2018-11-21T02:47:25.035Z,2.40
2018-11-21T02:49:53.325Z,2.30
2018-11-21T02:52:21.613Z,2.30
2018-11-21T02:54:50.245Z,2.30
2018-11-21T02:57:23.020Z,2.30
2018-11-21T02:59:53.078Z,2.30
2018-11-21T03:02:21.132Z,2.30
2018-11-21T03:04:49.140Z,2.40
2018-11-21T03:07:17.726Z,2.40
2018-11-21T03:09:45.735Z,2.30
2018-11-21T03:12:14.113Z,2.30
2018-11-21T03:14:42.421Z,2.30
2018-11-21T03:17:10.706Z,2.30
2018-11-21T03:19:38.978Z,2.40
2018-11-21T03:22:08.087Z,2.40
2018-11-21T03:24:37.311Z,2.30
2018-11-21T03:27:05.333Z,2.30
2018-11-21T03:29:33.637Z,2.30
2018-11-21T03:32:01.679Z,2.30
2018-11-21T03:34:29.987Z,2.40
2018-11-21T03:36:58.001Z,2.40
2018-11-21T03:39:26.710Z,2.40
2018-11-21T03:41:54.760Z,2.40
2018-11-21T03:44:23.781Z,2.40
2018-11-21T03:46:51.792Z,2.40
2018-11-21T03:49:20.686Z,2.40
2018-11-21T03:51:48.629Z,2.30
2018-11-21T03:54:16.932Z,2.30
2018-11-21T03:56:44.989Z,2.40
2018-11-21T03:59:13.003Z,2.40
2018-11-21T04:01:41.617Z,2.30
2018-11-21T04:04:09.947Z,2.40
2018-11-21T04:06:37.946Z,2.40
2018-11-21T04:09:10.494Z,2.40
2018-11-21T04:11:38.867Z,2.40
2018-11-21T04:14:07.261Z,2.30
2018-11-21T04:16:35.416Z,2.30
2018-11-21T04:19:03.756Z,2.30
2018-11-21T04:21:32.024Z,2.40
2018-11-21T04:24:00.308Z,2.40
2018-11-21T04:26:28.292Z,2.40
2018-11-21T04:28:56.900Z,2.40
2018-11-21T04:31:25.970Z,2.40
2018-11-21T04:33:54.052Z,2.40
2018-11-21T04:36:22.795Z,2.40
2018-11-21T04:38:50.806Z,2.40
2018-11-21T04:41:19.506Z,2.40
2018-11-21T04:43:48.326Z,2.40
2018-11-21T04:46:16.367Z,2.40
2018-11-21T04:48:44.376Z,2.40
2018-11-21T04:51:13.453Z,2.40
2018-11-21T04:53:42.615Z,2.40
2018-11-21T04:56:10.970Z,2.40
2018-11-21T04:58:39.241Z,2.40
2018-11-21T05:01:07.820Z,2.40
2018-11-21T05:03:36.044Z,2.40
2018-11-21T05:06:04.320Z,2.50
2018-11-21T05:08:32.631Z,2.50
2018-11-21T05:11:00.642Z,2.50
2018-11-21T05:13:28.954Z,2.50
2018-11-21T05:15:57.257Z,2.40
2018-11-21T05:18:25.352Z,2.40
2018-11-21T05:20:53.349Z,2.40
2018-11-21T05:23:21.680Z,2.40
2018-11-21T05:25:50.193Z,2.50
2018-11-21T05:28:18.204Z,2.40
2018-11-21T05:30:46.515Z,2.50
2018-11-21T05:33:14.772Z,2.40
2018-11-21T05:35:43.064Z,2.50
2018-11-21T05:38:11.341Z,2.50
2018-11-21T05:40:40.235Z,2.50
2018-11-21T05:43:08.257Z,2.40
2018-11-21T05:45:37.100Z,2.40
2018-11-21T05:48:05.432Z,2.40
2018-11-21T05:50:33.821Z,2.50
2018-11-21T05:53:01.780Z,2.50
2018-11-21T05:55:29.908Z,2.50
2018-11-21T05:57:57.890Z,2.50
2018-11-21T06:00:26.751Z,2.50
2018-11-21T06:02:54.739Z,2.50
2018-11-21T06:05:23.087Z,2.60
2018-11-21T06:07:51.467Z,2.60
2018-11-21T06:10:19.481Z,2.60
2018-11-21T06:12:48.331Z,2.60
2018-11-21T06:15:16.354Z,2.60
2018-11-21T06:17:48.042Z,2.70
2018-11-21T06:20:13.932Z,2.60
2018-11-21T06:22:42.427Z,2.60
2018-11-21T06:25:11.388Z,2.60
2018-11-21T06:27:39.583Z,2.60
2018-11-21T06:30:11.958Z,2.50
2018-11-21T06:32:40.909Z,2.60
2018-11-21T06:35:10.023Z,2.50
2018-11-21T06:37:39.389Z,2.60
2018-11-21T06:40:13.105Z,2.60
2018-11-21T06:42:52.006Z,2.70
2018-11-21T06:45:20.879Z,2.70
2018-11-21T06:47:49.143Z,2.60
2018-11-21T06:50:17.738Z,2.50
2018-11-21T06:52:45.838Z,2.50
2018-11-21T06:55:14.356Z,2.60
2018-11-21T06:57:42.725Z,2.60
2018-11-21T07:00:11.615Z,2.60
2018-11-21T07:02:40.164Z,2.60
2018-11-21T07:05:08.772Z,2.60
2018-11-21T07:07:37.319Z,2.60
2018-11-21T07:10:09.260Z,2.60
2018-11-21T07:12:37.239Z,2.50
2018-11-21T07:15:05.989Z,2.60
2018-11-21T07:17:35.118Z,2.60
2018-11-21T07:20:03.618Z,2.70
2018-11-21T07:22:31.708Z,2.70
2018-11-21T07:25:00.037Z,2.60
2018-11-21T07:27:28.097Z,2.60
2018-11-21T07:29:56.410Z,2.60
2018-11-21T07:32:28.300Z,2.60
2018-11-21T07:34:56.802Z,2.60
2018-11-21T07:37:25.539Z,2.50
2018-11-21T07:39:54.325Z,2.60
2018-11-21T07:42:22.360Z,2.60
2018-11-21T07:44:51.014Z,2.60
2018-11-21T07:47:19.347Z,2.70
2018-11-21T07:49:48.397Z,2.70
2018-11-21T07:52:16.416Z,2.70
2018-11-21T07:54:44.682Z,2.80
2018-11-21T07:57:35.741Z,2.80
2018-11-21T08:00:42.773Z,2.80
2018-11-21T08:03:11.208Z,2.80
2018-11-21T08:05:44.277Z,2.70
2018-11-21T08:08:26.583Z,2.60
2018-11-21T08:11:13.218Z,2.70
2018-11-21T08:14:03.324Z,2.80
2018-11-21T08:16:49.650Z,2.80
2018-11-21T08:19:35.955Z,2.80
2018-11-21T08:22:22.438Z,2.80
2018-11-21T08:25:09.775Z,2.90
2018-11-21T08:28:06.183Z,2.80
2018-11-21T08:30:34.448Z,2.80
2018-11-21T08:33:02.821Z,2.90
2018-11-21T08:35:30.805Z,2.80
2018-11-21T08:37:59.059Z,2.90
2018-11-21T08:40:27.096Z,2.90
2018-11-21T08:42:55.443Z,3.00
2018-11-21T08:45:23.514Z,3.00
2018-11-21T08:47:51.539Z,3.00
2018-11-21T08:50:19.684Z,3.00
2018-11-21T08:52:48.513Z,3.00
2018-11-21T08:55:16.790Z,3.10
2018-11-21T08:57:44.793Z,3.10
2018-11-21T09:00:14.096Z,3.10
2018-11-21T09:02:42.179Z,3.10
2018-11-21T09:05:11.149Z,3.20
2018-11-21T09:07:40.486Z,3.20
2018-11-21T09:10:10.957Z,3.10
2018-11-21T09:12:39.280Z,3.10
2018-11-21T09:15:13.249Z,3.00
2018-11-21T09:17:41.666Z,3.00
2018-11-21T09:20:11.194Z,2.90
2018-11-21T09:22:39.435Z,2.90
2018-11-21T09:25:08.632Z,3.10
2018-11-21T09:27:37.040Z,3.10
2018-11-21T09:30:09.025Z,3.10
2018-11-21T09:32:37.066Z,3.20
2018-11-21T09:35:10.100Z,3.00
2018-11-21T09:37:38.307Z,3.10
2018-11-21T09:40:09.913Z,3.10
2018-11-21T09:42:39.170Z,3.00
2018-11-21T09:45:08.896Z,3.00
2018-11-21T09:47:37.192Z,3.10
2018-11-21T09:50:08.488Z,3.10
2018-11-21T09:52:36.499Z,3.10
2018-11-21T09:55:05.376Z,3.10
2018-11-21T09:57:33.407Z,3.30
2018-11-21T10:00:01.756Z,3.20
2018-11-21T10:03:02.168Z,3.20
2018-11-21T10:05:30.135Z,3.20
2018-11-21T10:08:04.107Z,3.20
2018-11-21T10:10:32.428Z,3.30
2018-11-21T10:13:01.727Z,3.20
2018-11-21T10:15:29.738Z,3.30
2018-11-21T10:17:57.741Z,3.30
2018-11-21T10:20:26.060Z,3.30
2018-11-21T10:22:54.474Z,3.40
2018-11-21T10:25:22.489Z,3.20
2018-11-21T10:27:50.783Z,3.20
2018-11-21T10:30:19.141Z,3.30
2018-11-21T10:32:47.833Z,3.40
2018-11-21T10:35:15.815Z,3.40
2018-11-21T10:37:44.161Z,3.30
2018-11-21T10:40:12.753Z,3.30
2018-11-21T10:42:40.773Z,3.30
2018-11-21T10:45:09.080Z,3.20
2018-11-21T10:47:37.395Z,3.30
2018-11-21T10:50:06.870Z,3.40
2018-11-21T10:52:35.207Z,3.50
2018-11-21T10:55:03.243Z,3.50
2018-11-21T10:57:31.584Z,3.50
2018-11-21T10:59:59.924Z,3.50
2018-11-21T11:02:46.183Z,3.40
2018-11-21T11:05:30.171Z,3.50
2018-11-21T11:08:32.678Z,3.50
2018-11-21T11:11:20.700Z,3.60
2018-11-21T11:14:01.441Z,3.60
2018-11-21T11:16:41.913Z,3.50
2018-11-21T11:19:28.841Z,3.50
2018-11-21T11:22:31.338Z,3.50
2018-11-21T11:25:07.864Z,3.40
2018-11-21T11:27:55.154Z,3.40
2018-11-21T11:30:36.901Z,3.50
2018-11-21T11:33:23.167Z,3.50
2018-11-21T11:36:16.564Z,3.60
2018-11-21T11:39:02.691Z,3.40
2018-11-21T11:41:48.555Z,3.50
2018-11-21T11:44:40.281Z,3.50
2018-11-21T11:47:26.351Z,3.40
2018-11-21T11:50:03.042Z,3.40
2018-11-21T11:52:46.831Z,3.50
2018-11-21T11:55:38.404Z,3.50
2018-11-21T11:58:14.968Z,3.50
2018-11-21T12:00:54.108Z,3.80
2018-11-21T12:03:47.847Z,3.70
2018-11-21T12:06:35.449Z,3.60
2018-11-21T12:09:16.131Z,3.40
2018-11-21T12:12:05.029Z,3.30
2018-11-21T12:14:48.288Z,3.40
2018-11-21T12:17:41.894Z,3.30
2018-11-21T12:20:28.186Z,3.30
2018-11-21T12:23:18.326Z,3.40
2018-11-21T12:26:24.036Z,3.40
2018-11-21T12:29:11.032Z,3.30
2018-11-21T12:31:56.887Z,3.40
2018-11-21T12:34:43.210Z,3.30
2018-11-21T12:37:28.328Z,3.30
2018-11-21T12:40:07.681Z,3.30
2018-11-21T12:43:02.284Z,3.20
2018-11-21T12:45:38.672Z,3.20
2018-11-21T12:48:29.044Z,3.20
2018-11-21T12:51:19.314Z,3.20
2018-11-21T12:54:09.252Z,3.30
2018-11-21T12:57:04.475Z,3.30
2018-11-21T12:59:50.279Z,3.20
2018-11-21T13:02:56.085Z,3.20
2018-11-21T13:05:32.413Z,3.10
2018-11-21T13:08:34.635Z,3.10
2018-11-21T13:11:20.880Z,3.10
2018-11-21T13:14:10.662Z,3.20
2018-11-21T13:16:57.937Z,3.30
2018-11-21T13:19:44.022Z,3.30
2018-11-21T13:22:18.141Z,3.30
2018-11-21T13:25:09.874Z,3.30
2018-11-21T13:27:55.474Z,3.30
2018-11-21T13:30:36.420Z,3.30
2018-11-21T13:33:22.890Z,3.30
2018-11-21T13:35:59.457Z,3.30
2018-11-21T13:38:52.840Z,3.20
2018-11-21T13:41:42.667Z,3.20
2018-11-21T13:44:24.969Z,3.20
2018-11-21T13:47:05.541Z,3.20
2018-11-21T13:49:48.470Z,3.20
2018-11-21T13:52:38.365Z,3.30
2018-11-21T13:55:07.184Z,3.20
2018-11-21T13:57:35.494Z,3.30
2018-11-21T14:00:04.193Z,3.20
2018-11-21T14:02:32.211Z,3.30
2018-11-21T14:05:00.491Z,3.20
2018-11-21T14:07:28.509Z,3.20
2018-11-21T14:09:56.564Z,3.30
2018-11-21T14:12:24.561Z,3.30
2018-11-21T14:14:52.556Z,3.30
2018-11-21T14:17:27.517Z,3.30
2018-11-21T14:19:49.926Z,3.30
2018-11-21T14:22:17.993Z,3.30
2018-11-21T14:24:46.282Z,3.30
2018-11-21T14:27:14.273Z,3.40
2018-11-21T14:29:42.629Z,3.30
2018-11-21T14:32:10.625Z,3.20
2018-11-21T14:34:38.876Z,3.20
2018-11-21T14:37:07.189Z,3.30
2018-11-21T14:39:35.834Z,3.30
2018-11-21T14:42:08.210Z,3.30
2018-11-21T14:44:31.891Z,3.30
2018-11-21T14:47:00.545Z,3.30
2018-11-21T14:49:29.129Z,3.40
2018-11-21T14:51:57.373Z,3.40
2018-11-21T14:54:25.371Z,3.30
2018-11-21T14:56:53.389Z,3.30
2018-11-21T14:59:21.642Z,3.40
2018-11-21T15:01:49.636Z,3.30
2018-11-21T15:04:18.491Z,3.30
2018-11-21T15:06:46.781Z,3.30
2018-11-21T15:09:15.637Z,3.20
2018-11-21T15:11:43.859Z,3.20
2018-11-21T15:14:12.006Z,3.30
2018-11-21T15:16:40.647Z,3.30
2018-11-21T15:19:08.668Z,3.30
2018-11-21T15:21:37.013Z,3.30
2018-11-21T15:24:05.322Z,3.30
2018-11-21T15:26:33.895Z,3.30
2018-11-21T15:29:02.468Z,3.30
2018-11-21T15:31:30.844Z,3.20
2018-11-21T15:33:59.031Z,3.20
2018-11-21T15:36:27.013Z,3.30
2018-11-21T15:38:55.469Z,3.20
2018-11-21T15:41:23.711Z,3.30
2018-11-21T15:43:52.119Z,3.20
2018-11-21T15:46:20.520Z,3.30
2018-11-21T15:48:48.777Z,3.30
2018-11-21T15:51:17.283Z,3.30
2018-11-21T15:53:45.307Z,3.30
2018-11-21T15:56:13.313Z,3.30
2018-11-21T15:58:41.341Z,3.30
2018-11-21T16:01:09.375Z,3.30
2018-11-21T16:03:37.664Z,3.30
2018-11-21T16:06:05.716Z,3.30
2018-11-21T16:08:33.915Z,3.30
2018-11-21T16:11:01.934Z,3.20
2018-11-21T16:13:31.050Z,3.20
2018-11-21T16:15:59.109Z,3.20
2018-11-21T16:18:27.623Z,3.20
2018-11-21T16:20:55.969Z,3.10
2018-11-21T16:23:24.328Z,3.10
2018-11-21T16:25:52.708Z,3.20
2018-11-21T16:28:20.986Z,3.20
2018-11-21T16:30:48.999Z,3.10
2018-11-21T16:33:17.393Z,3.00
2018-11-21T16:35:45.714Z,3.10
2018-11-21T16:38:14.606Z,3.10
2018-11-21T16:40:42.645Z,3.10
2018-11-21T16:43:10.927Z,3.10
2018-11-21T16:45:41.835Z,3.00
2018-11-21T16:48:09.985Z,3.10
2018-11-21T16:50:38.066Z,3.10
2018-11-21T16:53:06.123Z,3.10
2018-11-21T16:55:34.107Z,3.10
2018-11-21T16:58:02.881Z,3.20
2018-11-21T17:00:31.817Z,3.20
2018-11-21T17:03:00.555Z,3.30
2018-11-21T17:05:29.172Z,3.20
2018-11-21T17:07:57.396Z,3.20
2018-11-21T17:10:27.067Z,3.20
2018-11-21T17:12:55.411Z,3.10
2018-11-21T17:15:28.503Z,3.20
2018-11-21T17:17:56.784Z,3.10
2018-11-21T17:20:26.668Z,3.10
2018-11-21T17:22:55.792Z,3.10
2018-11-21T17:25:25.714Z,3.00
2018-11-21T17:27:53.703Z,3.00
2018-11-21T17:30:22.395Z,3.00
2018-11-21T17:32:50.643Z,3.00
2018-11-21T17:35:19.306Z,3.00
2018-11-21T17:37:47.776Z,3.00
2018-11-21T17:40:21.843Z,3.00
2018-11-21T17:42:50.072Z,2.90
2018-11-21T17:45:18.987Z,2.90
2018-11-21T17:47:47.277Z,2.90
2018-11-21T17:50:17.412Z,2.90
2018-11-21T17:52:46.478Z,2.80
2018-11-21T17:55:19.593Z,2.90
2018-11-21T17:57:48.288Z,2.90
2018-11-21T18:00:18.551Z,2.80
2018-11-21T18:02:47.685Z,2.80
2018-11-21T18:05:17.574Z,2.80
2018-11-21T18:07:46.539Z,2.80
2018-11-21T18:10:16.278Z,2.80
2018-11-21T18:12:44.829Z,2.80
2018-11-21T18:15:13.465Z,2.70
2018-11-21T18:17:42.122Z,2.70
2018-11-21T18:20:11.218Z,2.70
2018-11-21T18:22:39.816Z,2.70
2018-11-21T18:25:13.070Z,2.60
2018-11-21T18:27:41.186Z,2.70
2018-11-21T18:30:14.131Z,2.60
2018-11-21T18:32:43.233Z,2.60
2018-11-21T18:35:13.044Z,2.70
2018-11-21T18:37:41.506Z,2.70
2018-11-21T18:40:12.370Z,2.80
2018-11-21T18:42:40.863Z,2.70
2018-11-21T18:45:20.064Z,2.70
2018-11-21T18:47:48.440Z,2.70
2018-11-21T18:50:17.434Z,2.70
2018-11-21T18:52:46.128Z,2.80
2018-11-21T18:55:16.577Z,2.80
2018-11-21T18:58:11.906Z,2.70
2018-11-21T19:00:41.041Z,2.70
2018-11-21T19:03:10.022Z,2.70
2018-11-21T19:05:38.606Z,2.70
2018-11-21T19:08:06.922Z,2.70
2018-11-21T19:10:35.870Z,2.60
2018-11-21T19:13:04.116Z,2.50
2018-11-21T19:15:32.641Z,2.50
2018-11-21T19:18:00.647Z,2.60
2018-11-21T19:20:30.612Z,2.60
2018-11-21T19:22:58.635Z,2.60
2018-11-21T19:25:26.631Z,2.60
2018-11-21T19:27:55.570Z,2.60
2018-11-21T19:30:23.947Z,2.70
2018-11-21T19:32:52.852Z,2.60
2018-11-21T19:35:22.076Z,2.60
2018-11-21T19:37:50.436Z,2.70
2018-11-21T19:40:18.479Z,2.60
2018-11-21T19:42:47.086Z,2.60
2018-11-21T19:45:16.280Z,2.60
2018-11-21T19:47:45.029Z,2.60
2018-11-21T19:50:14.291Z,2.60
2018-11-21T19:52:43.795Z,2.50
2018-11-21T19:55:14.077Z,2.60
2018-11-21T19:57:42.687Z,2.50
2018-11-21T20:00:14.625Z,2.60
2018-11-21T20:02:42.643Z,2.50
2018-11-21T20:05:11.444Z,2.40
2018-11-21T20:07:40.305Z,2.50
2018-11-21T20:10:09.179Z,2.50
2018-11-21T20:12:40.061Z,2.40
2018-11-21T20:15:09.594Z,2.30
